sensor_id;sensor_type;location;lat;lon;timestamp;pressure;altitude;pressure_sealevel;temperature;humidity
7662;BME280;30314;48.184;11.510;2023-11-18T00:01:34;96627.31;;;4.02;100.00
7662;BME280;30314;48.184;11.510;2023-11-18T00:04:01;96630.97;;;4.01;100.00
7662;BME280;30314;48.184;11.510;2023-11-18T00:06:28;96640.84;;;3.99;100.00
7662;BME280;30314;48.184;11.510;2023-11-18T00:08:54;96642.53;;;3.93;100.00
7662;BME280;30314;48.184;11.510;2023-11-18T00:11:21;96633.56;;;4.01;100.00
7662;BME280;30314;48.184;11.510;2023-11-18T00:13:48;96639.72;;;4.07;100.00
7662;BME280;30314;48.184;11.510;2023-11-18T00:16:14;96638.13;;;4.06;100.00
7662;BME280;30314;48.184;11.510;2023-11-18T00:18:43;96641.63;;;4.00;100.00
7662;BME280;30314;48.184;11.510;2023-11-18T00:21:10;96638.91;;;4.06;100.00
7662;BME280;30314;48.184;11.510;2023-11-18T00:23:38;96640.59;;;4.01;100.00
7662;BME280;30314;48.184;11.510;2023-11-18T00:26:05;96638.00;;;4.01;100.00
7662;BME280;30314;48.184;11.510;2023-11-18T00:28:33;96639.72;;;4.07;100.00
7662;BME280;30314;48.184;11.510;2023-11-18T00:31:00;96642.13;;;4.08;100.00
7662;BME280;30314;48.184;11.510;2023-11-18T00:33:27;96645.16;;;3.93;100.00
7662;BME280;30314;48.184;11.510;2023-11-18T00:35:54;96639.78;;;3.88;100.00
7662;BME280;30314;48.184;11.510;2023-11-18T00:38:20;96644.69;;;3.97;100.00
7662;BME280;30314;48.184;11.510;2023-11-18T00:40:48;96637.44;;;3.99;100.00
7662;BME280;30314;48.184;11.510;2023-11-18T00:43:14;96646.75;;;3.94;100.00
7662;BME280;30314;48.184;11.510;2023-11-18T00:45:41;96647.88;;;3.99;100.00
7662;BME280;30314;48.184;11.510;2023-11-18T00:48:09;96653.34;;;3.97;100.00
7662;BME280;30314;48.184;11.510;2023-11-18T00:50:36;96646.84;;;3.88;100.00
7662;BME280;30314;48.184;11.510;2023-11-18T00:53:03;96659.09;;;3.87;100.00
7662;BME280;30314;48.184;11.510;2023-11-18T00:55:32;96652.09;;;4.00;100.00
7662;BME280;30314;48.184;11.510;2023-11-18T00:57:58;96652.41;;;3.91;100.00
7662;BME280;30314;48.184;11.510;2023-11-18T01:00:25;96662.88;;;3.91;100.00
7662;BME280;30314;48.184;11.510;2023-11-18T01:02:53;96665.69;;;3.90;100.00
7662;BME280;30314;48.184;11.510;2023-11-18T01:05:21;96653.09;;;3.87;100.00
7662;BME280;30314;48.184;11.510;2023-11-18T01:07:48;96655.72;;;3.99;100.00
7662;BME280;30314;48.184;11.510;2023-11-18T01:10:15;96657.97;;;3.95;100.00
7662;BME280;30314;48.184;11.510;2023-11-18T01:12:42;96653.09;;;3.87;100.00
7662;BME280;30314;48.184;11.510;2023-11-18T01:15:12;96654.88;;;3.86;100.00
7662;BME280;30314;48.184;11.510;2023-11-18T01:17:39;96651.63;;;3.91;100.00
7662;BME280;30314;48.184;11.510;2023-11-18T01:20:07;96657.66;;;3.91;100.00
7662;BME280;30314;48.184;11.510;2023-11-18T01:22:37;96662.31;;;4.01;100.00
7662;BME280;30314;48.184;11.510;2023-11-18T01:25:05;96662.88;;;3.91;100.00
7662;BME280;30314;48.184;11.510;2023-11-18T01:27:32;96661.53;;;4.01;100.00
7662;BME280;30314;48.184;11.510;2023-11-18T01:30:00;96670.25;;;3.94;100.00
7662;BME280;30314;48.184;11.510;2023-11-18T01:32:27;96668.19;;;3.85;100.00
7662;BME280;30314;48.184;11.510;2023-11-18T01:34:56;96665.34;;;3.86;100.00
7662;BME280;30314;48.184;11.510;2023-11-18T01:37:24;96671.09;;;3.76;100.00
7662;BME280;30314;48.184;11.510;2023-11-18T01:39:51;96671.09;;;3.76;100.00
7662;BME280;30314;48.184;11.510;2023-11-18T01:42:17;96682.94;;;3.79;100.00
7662;BME280;30314;48.184;11.510;2023-11-18T01:44:44;96684.09;;;3.83;100.00
7662;BME280;30314;48.184;11.510;2023-11-18T01:47:11;96684.81;;;3.90;100.00
7662;BME280;30314;48.184;11.510;2023-11-18T01:49:40;96678.88;;;3.95;100.00
7662;BME280;30314;48.184;11.510;2023-11-18T01:52:07;96671.09;;;3.76;100.00
7662;BME280;30314;48.184;11.510;2023-11-18T01:54:36;96682.28;;;3.84;100.00
7662;BME280;30314;48.184;11.510;2023-11-18T01:57:04;96675.09;;;3.79;100.00
7662;BME280;30314;48.184;11.510;2023-11-18T01:59:33;96677.72;;;3.79;100.00
7662;BME280;30314;48.184;11.510;2023-11-18T02:02:01;96676.25;;;3.83;100.00
7662;BME280;30314;48.184;11.510;2023-11-18T02:04:28;96691.84;;;3.90;100.00
7662;BME280;30314;48.184;11.510;2023-11-18T02:06:56;96683.50;;;3.81;100.00
7662;BME280;30314;48.184;11.510;2023-11-18T02:09:24;96680.78;;;3.76;100.00
7662;BME280;30314;48.184;11.510;2023-11-18T02:12:04;96690.88;;;3.72;100.00
7662;BME280;30314;48.184;11.510;2023-11-18T02:14:39;96693.69;;;3.71;100.00
7662;BME280;30314;48.184;11.510;2023-11-18T02:17:07;96687.69;;;3.70;100.00
7662;BME280;30314;48.184;11.510;2023-11-18T02:19:38;96690.06;;;3.72;100.00
7662;BME280;30314;48.184;11.510;2023-11-18T02:22:06;96689.03;;;3.73;100.00
7662;BME280;30314;48.184;11.510;2023-11-18T02:24:34;96691.47;;;3.86;100.00
7662;BME280;30314;48.184;11.510;2023-11-18T02:27:04;96700.69;;;3.89;100.00
7662;BME280;30314;48.184;11.510;2023-11-18T02:29:36;96695.56;;;3.82;100.00
7662;BME280;30314;48.184;11.510;2023-11-18T02:32:29;96695.56;;;3.82;100.00
7662;BME280;30314;48.184;11.510;2023-11-18T02:35:10;96685.47;;;3.86;100.00
7662;BME280;30314;48.184;11.510;2023-11-18T02:37:42;96689.00;;;3.91;100.00
7662;BME280;30314;48.184;11.510;2023-11-18T02:40:12;96682.75;;;3.92;100.00
7662;BME280;30314;48.184;11.510;2023-11-18T02:42:43;96686.69;;;3.83;100.00
7662;BME280;30314;48.184;11.510;2023-11-18T02:45:13;96692.66;;;3.72;100.00
7662;BME280;30314;48.184;11.510;2023-11-18T02:47:44;96696.53;;;3.69;100.00
7662;BME280;30314;48.184;11.510;2023-11-18T02:50:11;96697.59;;;3.80;100.00
7662;BME280;30314;48.184;11.510;2023-11-18T02:52:40;96695.91;;;3.86;100.00
7662;BME280;30314;48.184;11.510;2023-11-18T02:55:07;96688.38;;;3.77;100.00
7662;BME280;30314;48.184;11.510;2023-11-18T02:57:35;96689.88;;;3.85;100.00
7662;BME280;30314;48.184;11.510;2023-11-18T03:00:07;96697.50;;;3.87;100.00
7662;BME280;30314;48.184;11.510;2023-11-18T03:02:43;96687.72;;;3.82;100.00
7662;BME280;30314;48.184;11.510;2023-11-18T03:05:09;96692.50;;;3.85;100.00
7662;BME280;30314;48.184;11.510;2023-11-18T03:07:41;96690.16;;;3.96;100.00
7662;BME280;30314;48.184;11.510;2023-11-18T03:10:08;96698.91;;;3.89;100.00
7662;BME280;30314;48.184;11.510;2023-11-18T03:12:50;96702.94;;;3.85;100.00
7662;BME280;30314;48.184;11.510;2023-11-18T03:15:19;96702.16;;;3.85;100.00
7662;BME280;30314;48.184;11.510;2023-11-18T03:17:51;96699.47;;;3.91;100.00
7662;BME280;30314;48.184;11.510;2023-11-18T03:20:20;96695.19;;;3.78;100.00
7662;BME280;30314;48.184;11.510;2023-11-18T03:22:50;96704.53;;;3.86;100.00
7662;BME280;30314;48.184;11.510;2023-11-18T03:25:18;96704.41;;;3.81;100.00
7662;BME280;30314;48.184;11.510;2023-11-18T03:27:46;96710.78;;;3.85;100.00
7662;BME280;30314;48.184;11.510;2023-11-18T03:30:12;96710.41;;;3.82;100.00
7662;BME280;30314;48.184;11.510;2023-11-18T03:32:40;96709.53;;;3.76;100.00
7662;BME280;30314;48.184;11.510;2023-11-18T03:35:07;96720.97;;;3.75;100.00
7662;BME280;30314;48.184;11.510;2023-11-18T03:37:37;96719.59;;;3.72;100.00
7662;BME280;30314;48.184;11.510;2023-11-18T03:40:09;96724.84;;;3.72;100.00
7662;BME280;30314;48.184;11.510;2023-11-18T03:42:37;96716.63;;;3.69;100.00
7662;BME280;30314;48.184;11.510;2023-11-18T03:45:04;96728.66;;;3.70;100.00
7662;BME280;30314;48.184;11.510;2023-11-18T03:47:31;96732.88;;;3.71;100.00
7662;BME280;30314;48.184;11.510;2023-11-18T03:49:58;96741.44;;;3.78;100.00
7662;BME280;30314;48.184;11.510;2023-11-18T03:52:25;96741.88;;;3.75;100.00
7662;BME280;30314;48.184;11.510;2023-11-18T03:54:52;96745.41;;;3.80;100.00
7662;BME280;30314;48.184;11.510;2023-11-18T03:57:19;96739.63;;;3.78;100.00
7662;BME280;30314;48.184;11.510;2023-11-18T03:59:45;96748.25;;;3.79;100.00
7662;BME280;30314;48.184;11.510;2023-11-18T04:02:12;96756.81;;;3.86;100.00
7662;BME280;30314;48.184;11.510;2023-11-18T04:04:38;96749.69;;;3.75;100.00
7662;BME280;30314;48.184;11.510;2023-11-18T04:07:05;96750.72;;;3.74;100.00
7662;BME280;30314;48.184;11.510;2023-11-18T04:09:33;96748.41;;;3.84;100.00
7662;BME280;30314;48.184;11.510;2023-11-18T04:11:59;96747.81;;;3.82;100.00
7662;BME280;30314;48.184;11.510;2023-11-18T04:14:26;96742.59;;;3.82;100.00
7662;BME280;30314;48.184;11.510;2023-11-18T04:16:53;96736.63;;;3.75;100.00
7662;BME280;30314;48.184;11.510;2023-11-18T04:19:21;96742.59;;;3.82;100.00
7662;BME280;30314;48.184;11.510;2023-11-18T04:21:47;96737.38;;;3.82;100.00
7662;BME280;30314;48.184;11.510;2023-11-18T04:24:15;96748.97;;;3.86;100.00
7662;BME280;30314;48.184;11.510;2023-11-18T04:26:42;96736.56;;;3.82;100.00
7662;BME280;30314;48.184;11.510;2023-11-18T04:29:08;96738.75;;;3.85;100.00
7662;BME280;30314;48.184;11.510;2023-11-18T04:31:35;96740.06;;;3.75;100.00
7662;BME280;30314;48.184;11.510;2023-11-18T04:34:03;96738.91;;;3.71;100.00
7662;BME280;30314;48.184;11.510;2023-11-18T04:36:31;96749.13;;;3.73;100.00
7662;BME280;30314;48.184;11.510;2023-11-18T04:39:00;96740.72;;;3.71;100.00
7662;BME280;30314;48.184;11.510;2023-11-18T04:41:28;96736.72;;;3.68;100.00
7662;BME280;30314;48.184;11.510;2023-11-18T04:43:55;96739.13;;;3.70;100.00
7662;BME280;30314;48.184;11.510;2023-11-18T04:46:22;96724.69;;;3.67;100.00
7662;BME280;30314;48.184;11.510;2023-11-18T04:48:48;96734.25;;;3.73;100.00
7662;BME280;30314;48.184;11.510;2023-11-18T04:51:15;96731.84;;;3.72;100.00
7662;BME280;30314;48.184;11.510;2023-11-18T04:53:43;96710.75;;;3.55;100.00
7662;BME280;30314;48.184;11.510;2023-11-18T04:56:11;96741.94;;;3.68;100.00
7662;BME280;30314;48.184;11.510;2023-11-18T04:58:38;96738.09;;;3.71;100.00
7662;BME280;30314;48.184;11.510;2023-11-18T05:01:05;96724.41;;;3.57;100.00
7662;BME280;30314;48.184;11.510;2023-11-18T05:03:32;96740.78;;;3.83;100.00
7662;BME280;30314;48.184;11.510;2023-11-18T05:05:59;96750.72;;;3.74;100.00
7662;BME280;30314;48.184;11.510;2023-11-18T05:08:26;96739.84;;;3.77;100.00
7662;BME280;30314;48.184;11.510;2023-11-18T05:10:53;96748.72;;;3.76;100.00
7662;BME280;30314;48.184;11.510;2023-11-18T05:13:20;96737.00;;;3.78;100.00
7662;BME280;30314;48.184;11.510;2023-11-18T05:15:48;96751.44;;;3.81;100.00
7662;BME280;30314;48.184;11.510;2023-11-18T05:18:16;96751.72;;;3.91;100.00
7662;BME280;30314;48.184;11.510;2023-11-18T05:20:43;96740.84;;;3.94;100.00
7662;BME280;30314;48.184;11.510;2023-11-18T05:23:11;96735.56;;;3.83;100.00
7662;BME280;30314;48.184;11.510;2023-11-18T05:25:42;96728.06;;;3.86;100.00
7662;BME280;30314;48.184;11.510;2023-11-18T05:28:12;96718.06;;;3.83;100.00
7662;BME280;30314;48.184;11.510;2023-11-18T05:30:41;96706.31;;;3.74;100.00
7662;BME280;30314;48.184;11.510;2023-11-18T05:33:09;96731.78;;;3.78;100.00
7662;BME280;30314;48.184;11.510;2023-11-18T05:35:41;96723.00;;;3.73;100.00
7662;BME280;30314;48.184;11.510;2023-11-18T05:38:19;96722.31;;;3.65;100.00
7662;BME280;30314;48.184;11.510;2023-11-18T05:40:48;96720.91;;;3.63;100.00
7662;BME280;30314;48.184;11.510;2023-11-18T05:43:27;96723.91;;;3.66;100.00
7662;BME280;30314;48.184;11.510;2023-11-18T05:45:56;96723.31;;;3.64;100.00
7662;BME280;30314;48.184;11.510;2023-11-18T05:48:44;96727.72;;;3.64;100.00
7662;BME280;30314;48.184;11.510;2023-11-18T05:51:11;96739.56;;;3.66;100.00
7662;BME280;30314;48.184;11.510;2023-11-18T05:53:44;96741.16;;;3.68;100.00
7662;BME280;30314;48.184;11.510;2023-11-18T05:56:13;96743.56;;;3.69;100.00
7662;BME280;30314;48.184;11.510;2023-11-18T05:58:40;96749.28;;;3.59;100.00
7662;BME280;30314;48.184;11.510;2023-11-18T06:01:07;96743.41;;;3.64;100.00
7662;BME280;30314;48.184;11.510;2023-11-18T06:03:35;96753.13;;;3.75;100.00
7662;BME280;30314;48.184;11.510;2023-11-18T06:06:09;96757.91;;;3.78;100.00
7662;BME280;30314;48.184;11.510;2023-11-18T06:08:37;96763.56;;;3.75;100.00
7662;BME280;30314;48.184;11.510;2023-11-18T06:11:09;96769.63;;;3.76;100.00
7662;BME280;30314;48.184;11.510;2023-11-18T06:13:44;96778.81;;;3.78;100.00
7662;BME280;30314;48.184;11.510;2023-11-18T06:16:14;96786.34;;;3.68;100.00
7662;BME280;30314;48.184;11.510;2023-11-18T06:18:44;96772.06;;;3.71;100.00
7662;BME280;30314;48.184;11.510;2023-11-18T06:21:15;96771.88;;;3.72;100.00
7662;BME280;30314;48.184;11.510;2023-11-18T06:23:43;96772.66;;;3.73;100.00
7662;BME280;30314;48.184;11.510;2023-11-18T06:26:09;96774.91;;;3.69;100.00
7662;BME280;30314;48.184;11.510;2023-11-18T06:28:38;96770.47;;;3.70;100.00
7662;BME280;30314;48.184;11.510;2023-11-18T06:31:05;96762.91;;;3.61;100.00
7662;BME280;30314;48.184;11.510;2023-11-18T06:33:42;96772.34;;;3.81;100.00
7662;BME280;30314;48.184;11.510;2023-11-18T06:38:40;96764.09;;;3.65;100.00
7662;BME280;30314;48.184;11.510;2023-11-18T06:41:07;96769.25;;;3.72;100.00
7662;BME280;30314;48.184;11.510;2023-11-18T06:43:43;96767.88;;;3.70;100.00
7662;BME280;30314;48.184;11.510;2023-11-18T06:46:24;96773.22;;;3.75;100.00
7662;BME280;30314;48.184;11.510;2023-11-18T06:48:53;96771.63;;;3.74;100.00
7662;BME280;30314;48.184;11.510;2023-11-18T06:51:21;96763.22;;;3.72;100.00
7662;BME280;30314;48.184;11.510;2023-11-18T06:53:52;96764.97;;;3.78;100.00
7662;BME280;30314;48.184;11.510;2023-11-18T06:56:22;96760.03;;;3.70;100.00
7662;BME280;30314;48.184;11.510;2023-11-18T06:58:49;96770.03;;;3.73;100.00
7662;BME280;30314;48.184;11.510;2023-11-18T07:01:16;96771.63;;;3.74;100.00
7662;BME280;30314;48.184;11.510;2023-11-18T07:03:43;96783.66;;;3.75;100.00
7662;BME280;30314;48.184;11.510;2023-11-18T07:06:11;96778.88;;;3.72;100.00
7662;BME280;30314;48.184;11.510;2023-11-18T07:08:40;96775.25;;;3.73;100.00
7662;BME280;30314;48.184;11.510;2023-11-18T07:11:07;96773.81;;;3.77;100.00
7662;BME280;30314;48.184;11.510;2023-11-18T07:13:33;96781.34;;;3.85;100.00
7662;BME280;30314;48.184;11.510;2023-11-18T07:16:01;96772.72;;;3.85;100.00
7662;BME280;30314;48.184;11.510;2023-11-18T07:18:29;96782.72;;;3.88;100.00
7662;BME280;30314;48.184;11.510;2023-11-18T07:21:01;96776.34;;;3.84;100.00
7662;BME280;30314;48.184;11.510;2023-11-18T07:23:34;96783.97;;;3.85;100.00
7662;BME280;30314;48.184;11.510;2023-11-18T07:26:01;96788.97;;;3.87;100.00
7662;BME280;30314;48.184;11.510;2023-11-18T07:28:30;96785.91;;;3.90;100.00
7662;BME280;30314;48.184;11.510;2023-11-18T07:30:57;96774.81;;;3.94;100.00
7662;BME280;30314;48.184;11.510;2023-11-18T07:33:26;96795.84;;;4.00;100.00
7662;BME280;30314;48.184;11.510;2023-11-18T07:35:53;96787.44;;;3.98;100.00
7662;BME280;30314;48.184;11.510;2023-11-18T07:38:21;96793.22;;;4.00;100.00
7662;BME280;30314;48.184;11.510;2023-11-18T07:40:48;96793.84;;;4.02;100.00
7662;BME280;30314;48.184;11.510;2023-11-18T07:43:15;96796.94;;;4.11;100.00
7662;BME280;30314;48.184;11.510;2023-11-18T07:45:42;96794.53;;;4.09;100.00
7662;BME280;30314;48.184;11.510;2023-11-18T07:48:10;96796.50;;;4.14;100.00
7662;BME280;30314;48.184;11.510;2023-11-18T07:50:40;96805.94;;;4.15;100.00
7662;BME280;30314;48.184;11.510;2023-11-18T07:53:11;96800.03;;;4.19;100.00
7662;BME280;30314;48.184;11.510;2023-11-18T07:55:37;96798.56;;;4.23;100.00
7662;BME280;30314;48.184;11.510;2023-11-18T07:58:07;96799.97;;;4.26;100.00
7662;BME280;30314;48.184;11.510;2023-11-18T08:00:41;96789.50;;;4.26;100.00
7662;BME280;30314;48.184;11.510;2023-11-18T08:03:09;96788.38;;;4.34;100.00
7662;BME280;30314;48.184;11.510;2023-11-18T08:05:43;96790.91;;;4.41;100.00
7662;BME280;30314;48.184;11.510;2023-11-18T08:08:11;96796.91;;;4.41;100.00
7662;BME280;30314;48.184;11.510;2023-11-18T08:10:39;96798.19;;;4.39;100.00
7662;BME280;30314;48.184;11.510;2023-11-18T08:13:07;96802.41;;;4.51;100.00
7662;BME280;30314;48.184;11.510;2023-11-18T08:15:35;96807.66;;;4.51;100.00
7662;BME280;30314;48.184;11.510;2023-11-18T08:18:01;96794.00;;;4.49;100.00
7662;BME280;30314;48.184;11.510;2023-11-18T08:20:29;96802.47;;;4.63;100.00
7662;BME280;30314;48.184;11.510;2023-11-18T08:22:57;96785.50;;;4.54;100.00
7662;BME280;30314;48.184;11.510;2023-11-18T08:25:23;96805.00;;;4.70;100.00
7662;BME280;30314;48.184;11.510;2023-11-18T08:27:50;96797.38;;;4.81;100.00
7662;BME280;30314;48.184;11.510;2023-11-18T08:30:16;96804.22;;;4.82;100.00
7662;BME280;30314;48.184;11.510;2023-11-18T08:32:45;96798.84;;;4.76;100.00
7662;BME280;30314;48.184;11.510;2023-11-18T08:35:14;96820.59;;;4.89;100.00
7662;BME280;30314;48.184;11.510;2023-11-18T08:37:42;96821.38;;;4.77;100.00
7662;BME280;30314;48.184;11.510;2023-11-18T08:40:09;96827.91;;;4.87;100.00
7662;BME280;30314;48.184;11.510;2023-11-18T08:42:44;96828.47;;;4.89;100.00
7662;BME280;30314;48.184;11.510;2023-11-18T08:45:22;96812.97;;;4.87;100.00
7662;BME280;30314;48.184;11.510;2023-11-18T08:47:54;96808.75;;;4.86;100.00
7662;BME280;30314;48.184;11.510;2023-11-18T08:50:22;96809.00;;;4.97;100.00
7662;BME280;30314;48.184;11.510;2023-11-18T08:52:52;96801.75;;;5.11;100.00
7662;BME280;30314;48.184;11.510;2023-11-18T08:55:27;96797.88;;;5.13;100.00
7662;BME280;30314;48.184;11.510;2023-11-18T08:58:10;96800.38;;;5.08;100.00
7662;BME280;30314;48.184;11.510;2023-11-18T09:00:50;96801.53;;;5.24;100.00
7662;BME280;30314;48.184;11.510;2023-11-18T09:03:25;96803.22;;;5.18;100.00
7662;BME280;30314;48.184;11.510;2023-11-18T09:05:57;96797.06;;;5.25;100.00
7662;BME280;30314;48.184;11.510;2023-11-18T09:08:29;96792.41;;;5.27;100.00
7662;BME280;30314;48.184;11.510;2023-11-18T09:10:58;96789.91;;;5.20;100.00
7662;BME280;30314;48.184;11.510;2023-11-18T09:13:26;96796.16;;;5.19;100.00
7662;BME280;30314;48.184;11.510;2023-11-18T09:15:58;96790.03;;;5.25;100.00
7662;BME280;30314;48.184;11.510;2023-11-18T09:18:26;96795.25;;;5.25;100.00
7662;BME280;30314;48.184;11.510;2023-11-18T09:21:03;96798.09;;;5.24;100.00
7662;BME280;30314;48.184;11.510;2023-11-18T09:23:35;96806.53;;;5.49;100.00
7662;BME280;30314;48.184;11.510;2023-11-18T09:26:01;96805.16;;;5.59;100.00
7662;BME280;30314;48.184;11.510;2023-11-18T09:28:29;96796.38;;;5.53;100.00
7662;BME280;30314;48.184;11.510;2023-11-18T09:30:56;96797.03;;;5.60;100.00
7662;BME280;30314;48.184;11.510;2023-11-18T09:33:30;96794.56;;;5.66;100.00
7662;BME280;30314;48.184;11.510;2023-11-18T09:38:29;96799.38;;;5.98;100.00
7662;BME280;30314;48.184;11.510;2023-11-18T09:40:57;96806.59;;;5.90;100.00
7662;BME280;30314;48.184;11.510;2023-11-18T09:43:35;96805.97;;;6.00;100.00
7662;BME280;30314;48.184;11.510;2023-11-18T09:46:09;96798.53;;;6.09;100.00
7662;BME280;30314;48.184;11.510;2023-11-18T09:48:47;96792.88;;;6.00;100.00
7662;BME280;30314;48.184;11.510;2023-11-18T09:51:24;96780.09;;;6.04;100.00
7662;BME280;30314;48.184;11.510;2023-11-18T09:53:53;96792.66;;;6.31;100.00
7662;BME280;30314;48.184;11.510;2023-11-18T09:56:30;96797.06;;;6.42;100.00
7662;BME280;30314;48.184;11.510;2023-11-18T09:59:12;96801.34;;;6.48;100.00
7662;BME280;30314;48.184;11.510;2023-11-18T10:01:50;96808.38;;;6.60;100.00
7662;BME280;30314;48.184;11.510;2023-11-18T10:04:20;96801.47;;;6.71;100.00
7662;BME280;30314;48.184;11.510;2023-11-18T10:06:47;96795.25;;;6.60;100.00
7662;BME280;30314;48.184;11.510;2023-11-18T10:09:16;96791.56;;;6.73;100.00
7662;BME280;30314;48.184;11.510;2023-11-18T10:11:47;96787.91;;;6.74;100.00
7662;BME280;30314;48.184;11.510;2023-11-18T10:14:14;96781.56;;;6.58;100.00
7662;BME280;30314;48.184;11.510;2023-11-18T10:16:44;96783.06;;;6.54;100.00
7662;BME280;30314;48.184;11.510;2023-11-18T10:19:14;96787.06;;;6.56;100.00
7662;BME280;30314;48.184;11.510;2023-11-18T10:21:44;96777.22;;;6.63;100.00
7662;BME280;30314;48.184;11.510;2023-11-18T10:24:16;96755.88;;;6.60;100.00
7662;BME280;30314;48.184;11.510;2023-11-18T10:26:54;96755.38;;;6.75;100.00
7662;BME280;30314;48.184;11.510;2023-11-18T10:29:25;96758.88;;;6.81;100.00
7662;BME280;30314;48.184;11.510;2023-11-18T10:32:07;96758.47;;;6.89;100.00
7662;BME280;30314;48.184;11.510;2023-11-18T10:34:42;96754.31;;;6.93;100.00
7662;BME280;30314;48.184;11.510;2023-11-18T10:37:09;96744.06;;;6.92;100.00
7662;BME280;30314;48.184;11.510;2023-11-18T10:39:37;96753.03;;;7.13;100.00
7662;BME280;30314;48.184;11.510;2023-11-18T10:42:04;96753.66;;;7.20;100.00
7662;BME280;30314;48.184;11.510;2023-11-18T10:44:31;96752.22;;;7.12;100.00
7662;BME280;30314;48.184;11.510;2023-11-18T10:46:58;96748.59;;;6.96;100.00
7662;BME280;30314;48.184;11.510;2023-11-18T10:49:29;96760.94;;;6.96;100.00
7662;BME280;30314;48.184;11.510;2023-11-18T10:52:04;96770.31;;;7.09;100.00
7662;BME280;30314;48.184;11.510;2023-11-18T10:54:34;96760.81;;;7.25;100.00
7662;BME280;30314;48.184;11.510;2023-11-18T10:57:01;96763.03;;;7.33;100.00
7662;BME280;30314;48.184;11.510;2023-11-18T10:59:34;96762.72;;;7.29;100.00
7662;BME280;30314;48.184;11.510;2023-11-18T11:02:17;96764.63;;;7.34;100.00
7662;BME280;30314;48.184;11.510;2023-11-18T11:04:45;96763.38;;;7.37;100.00
7662;BME280;30314;48.184;11.510;2023-11-18T11:07:13;96763.63;;;7.57;100.00
7662;BME280;30314;48.184;11.510;2023-11-18T11:09:41;96765.47;;;7.79;100.00
7662;BME280;30314;48.184;11.510;2023-11-18T11:12:13;96758.13;;;7.81;100.00
7662;BME280;30314;48.184;11.510;2023-11-18T11:14:50;96762.69;;;8.13;100.00
7662;BME280;30314;48.184;11.510;2023-11-18T11:17:27;96769.63;;;8.25;100.00
7662;BME280;30314;48.184;11.510;2023-11-18T11:20:07;96760.53;;;8.10;100.00
7662;BME280;30314;48.184;11.510;2023-11-18T11:23:05;96758.66;;;8.06;100.00
7662;BME280;30314;48.184;11.510;2023-11-18T11:28:34;96775.97;;;7.79;100.00
7662;BME280;30314;48.184;11.510;2023-11-18T11:31:21;96769.31;;;7.49;100.00
7662;BME280;30314;48.184;11.510;2023-11-18T11:33:57;96778.00;;;7.32;100.00
7662;BME280;30314;48.184;11.510;2023-11-18T11:36:37;96775.53;;;7.26;100.00
7662;BME280;30314;48.184;11.510;2023-11-18T11:39:08;96778.22;;;7.09;100.00
7662;BME280;30314;48.184;11.510;2023-11-18T11:41:45;96767.69;;;6.92;100.00
7662;BME280;30314;48.184;11.510;2023-11-18T11:44:13;96774.31;;;6.94;100.00
7662;BME280;30314;48.184;11.510;2023-11-18T11:46:40;96763.41;;;7.02;100.00
7662;BME280;30314;48.184;11.510;2023-11-18T11:49:10;96759.66;;;6.81;100.00
7662;BME280;30314;48.184;11.510;2023-11-18T11:52:07;96761.66;;;6.74;100.00
7662;BME280;30314;48.184;11.510;2023-11-18T11:54:43;96745.94;;;6.62;100.00
7662;BME280;30314;48.184;11.510;2023-11-18T11:57:11;96754.19;;;6.54;100.00
7662;BME280;30314;48.184;11.510;2023-11-18T12:02:15;96743.00;;;6.58;100.00
7662;BME280;30314;48.184;11.510;2023-11-18T12:04:46;96737.03;;;6.63;100.00
7662;BME280;30314;48.184;11.510;2023-11-18T12:07:14;96738.63;;;6.64;100.00
7662;BME280;30314;48.184;11.510;2023-11-18T12:09:47;96739.47;;;6.82;100.00
7662;BME280;30314;48.184;11.510;2023-11-18T12:12:17;96731.09;;;6.85;100.00
7662;BME280;30314;48.184;11.510;2023-11-18T12:15:04;96730.84;;;6.86;100.00
7662;BME280;30314;48.184;11.510;2023-11-18T12:20:42;96738.06;;;6.62;100.00
7662;BME280;30314;48.184;11.510;2023-11-18T12:23:22;96727.66;;;6.50;100.00
7662;BME280;30314;48.184;11.510;2023-11-18T12:25:53;96724.69;;;6.46;100.00
7662;BME280;30314;48.184;11.510;2023-11-18T12:28:29;96722.78;;;6.42;100.00
7662;BME280;30314;48.184;11.510;2023-11-18T12:31:03;96715.78;;;6.47;100.00
7662;BME280;30314;48.184;11.510;2023-11-18T12:37:12;96701.56;;;6.43;100.00
7662;BME280;30314;48.184;11.510;2023-11-18T12:48:14;96685.41;;;6.52;100.00
7662;BME280;30314;48.184;11.510;2023-11-18T12:50:41;96678.25;;;6.47;100.00
7662;BME280;30314;48.184;11.510;2023-11-18T12:53:10;96676.81;;;6.39;100.00
7662;BME280;30314;48.184;11.510;2023-11-18T12:55:41;96675.78;;;6.40;100.00
7662;BME280;30314;48.184;11.510;2023-11-18T12:58:08;96664.72;;;6.38;100.00
7662;BME280;30314;48.184;11.510;2023-11-18T13:00:40;96666.09;;;6.41;100.00
7662;BME280;30314;48.184;11.510;2023-11-18T13:03:09;96669.97;;;6.38;100.00
7662;BME280;30314;48.184;11.510;2023-11-18T13:05:37;96680.47;;;6.38;100.00
7662;BME280;30314;48.184;11.510;2023-11-18T13:08:04;96672.78;;;6.48;100.00
7662;BME280;30314;48.184;11.510;2023-11-18T13:10:31;96663.50;;;6.75;100.00
7662;BME280;30314;48.184;11.510;2023-11-18T13:12:58;96658.59;;;6.67;100.00
7662;BME280;30314;48.184;11.510;2023-11-18T13:15:25;96663.16;;;6.71;100.00
7662;BME280;30314;48.184;11.510;2023-11-18T13:18:02;96662.34;;;6.54;100.00
7662;BME280;30314;48.184;11.510;2023-11-18T13:20:33;96646.91;;;6.40;100.00
7662;BME280;30314;48.184;11.510;2023-11-18T13:23:02;96648.22;;;6.38;100.00
7662;BME280;30314;48.184;11.510;2023-11-18T13:25:35;96641.28;;;6.31;100.00
7662;BME280;30314;48.184;11.510;2023-11-18T13:28:07;96635.63;;;6.23;100.00
7662;BME280;30314;48.184;11.510;2023-11-18T13:30:36;96630.38;;;6.23;100.00
7662;BME280;30314;48.184;11.510;2023-11-18T13:33:06;96633.97;;;6.16;100.00
7662;BME280;30314;48.184;11.510;2023-11-18T13:35:35;96633.50;;;6.19;100.00
7662;BME280;30314;48.184;11.510;2023-11-18T13:38:02;96642.41;;;6.18;100.00
7662;BME280;30314;48.184;11.510;2023-11-18T13:40:47;96636.50;;;6.11;100.00